Terminal Aerodrome Forecast
Issued by NWS

Home | Current Version | Previous Version | Text Only | Print | Product List | Glossary Off
Versions: 1 2 3 4 5 6 7 8 9 10 11 12 13 14 15 16 17 18 19 20 21 22

000
FTUS43 KUNR 052233 AAD
TAFGCC
TAF AMD
KGCC 052233Z 0523/0618 33015KT P6SM SCT020 BKN035
      TEMPO 0523/0602 BKN020
     FM060200 34015KT P6SM BKN035=

USA.gov is the U.S. government's official web portal to all federal, state and local government web resources and services.